Rialma, Brazil
Current Conditions -  °F | °C
As of 6:25 AM on Saturday 01 Nov 2014 (Local Time) from SBAN Reporting Station
Haze Haze  
Wind Chill: 64°   Ceiling: 400
Heat Index: 64°   Visibility: 1.5mi
Dew Point: 63°   Wind: 9mph
Humidity: 94%   Direction: 90°E
Pressure: 30.09"   Gusts: NA
Location:  15.32°S, 49.58°W
Report Text: SBAN 010825Z 09008KT 2500 BR BKN004 18/17 Q1019
Loading
Personal Weather Stations






























Interactive Weather Map
Tropical Storm Tracking
New forecast layout! Learn more

10-Day Weather Forecast

Advertisements
Track Severe Weather on mobile